Time;durP1;ratioP1;P1;durP2;ratioP2;P2;SDS_P1;SDS_P2;PMS_P1;PMS_P2;Temp;Humidity;BMP_temperature;BMP_pressure;BME280_temperature;BME280_humidity;BME280_pressure;Samples;Min_cycle;Max_cycle;Signal;HPM_P1;HPM_P2
2022/02/03 00:00:45;;;;;;;9.65;2.30;;;;;;;1.71;86.01;100025.41;5019191;28;20049;-71
2022/02/03 00:04:06;;;;;;;11.73;2.00;;;;;;;1.73;86.01;100031.38;5045877;28;20092;-71
2022/02/03 00:06:07;;;;;;;5.63;2.10;;;;;;;1.79;86.03;100021.28;5049454;28;20101;-70
2022/02/03 00:25:02;;;;;;;9.80;2.60;;;;;;;1.82;86.63;99994.91;5063904;28;20513;-69
2022/02/03 00:27:39;;;;;;;15.98;3.17;;;;;;;1.86;86.55;100009.47;5045575;28;20031;-70
2022/02/03 00:30:14;;;;;;;25.90;4.07;;;;;;;1.90;86.60;100021.50;5063740;28;20094;-69
2022/02/03 00:48:45;;;;;;;17.38;6.13;;;;;;;1.47;86.66;100024.03;5063776;28;20036;-68
2022/02/03 00:51:11;;;;;;;14.75;5.40;;;;;;;1.43;86.79;100023.06;5063597;28;20017;-67
2022/02/03 00:53:38;;;;;;;20.77;5.50;;;;;;;1.30;86.86;100001.47;5063307;28;20155;-67
2022/02/03 00:56:15;;;;;;;18.45;6.05;;;;;;;1.22;86.96;99985.06;5045046;28;20084;-67
2022/02/03 00:58:50;;;;;;;14.48;5.20;;;;;;;1.36;87.07;100011.84;5063186;28;20104;-68
2022/02/03 01:01:18;;;;;;;19.33;7.13;;;;;;;1.37;87.22;100015.25;5063038;28;20072;-67
2022/02/03 01:03:50;;;;;;;24.45;6.13;;;;;;;1.38;87.31;100022.09;5063299;28;20088;-67
2022/02/03 01:06:16;;;;;;;;;;;;;;;1.43;87.30;100022.19;5063745;28;20028;-67
2022/02/03 01:08:45;;;;;;;28.33;7.55;;;;;;;1.43;87.33;100025.63;5045134;28;19912;-68
2022/02/03 01:11:18;;;;;;;21.38;6.55;;;;;;;1.43;87.45;100023.06;5062996;28;20021;-68
2022/02/03 01:14:02;;;;;;;28.40;8.88;;;;;;;1.37;87.42;100002.47;5063105;28;20025;-68
2022/02/03 01:43:39;;;;;;;31.98;7.68;;;;;;;1.41;87.76;100014.50;5066260;28;20027;-65
2022/02/03 01:46:12;;;;;;;31.70;7.80;;;;;;;1.45;87.76;100021.41;5066247;28;20074;-65
2022/02/03 01:49:04;;;;;;;26.55;8.13;;;;;;;1.49;87.95;100022.34;5048534;28;20025;-65
2022/02/03 01:51:44;;;;;;;29.67;8.45;;;;;;;1.54;87.96;100022.44;5065911;28;20025;-66
2022/02/03 01:54:09;;;;;;;;;;;;;;;1.59;88.02;100026.84;5066636;28;20032;-65
2022/02/03 01:57:07;;;;;;;22.23;8.23;;;;;;;1.63;88.16;100029.47;5047979;28;19908;-65
2022/02/03 01:59:36;;;;;;;23.73;7.07;;;;;;;1.72;87.93;100035.66;5065588;28;20031;-65
2022/02/03 02:02:04;;;;;;;26.88;8.73;;;;;;;1.69;88.00;100021.94;5065909;28;20029;-65
2022/02/03 02:04:32;;;;;;;28.20;8.77;;;;;;;1.79;88.05;100030.69;5065789;28;20044;-65
2022/02/03 02:07:25;;;;;;;34.08;8.55;;;;;;;1.80;88.12;100022.16;5065630;28;20044;-65
2022/02/03 02:12:54;;;;;;;34.30;7.85;;;;;;;1.89;88.33;100018.91;5065734;28;20104;-65
2022/02/03 02:15:56;;;;;;;29.83;7.43;;;;;;;1.85;88.26;99997.53;5065705;28;20021;-66
2022/02/03 02:38:15;;;;;;;28.02;9.40;;;;;;;2.15;88.46;99996.41;5064882;28;20108;-65
2022/02/03 02:42:18;;;;;;;23.73;8.07;;;;;;;2.11;88.37;99994.59;5065227;28;20112;-65
2022/02/03 02:44:02;;;;;;;;;;;;;;;2.19;88.26;100005.88;5051047;28;20045;-64
2022/02/03 02:46:49;;;;;;;29.05;7.75;;;;;;;2.21;88.23;100003.34;5064982;28;19909;-64
2022/02/03 02:49:48;;;;;;;31.65;8.30;;;;;;;2.20;88.14;100004.19;5065246;28;20025;-65
2022/02/03 02:52:22;;;;;;;25.48;9.93;;;;;;;2.21;88.03;100008.47;5065108;28;20025;-65
2022/02/03 03:31:53;;;;;;;19.17;7.40;;;;;;;2.11;88.13;99989.47;5064299;28;20127;-65
2022/02/03 03:35:00;;;;;;;27.33;7.20;;;;;;;2.06;88.00;99971.47;5053186;28;20037;-66
2022/02/03 03:36:48;;;;;;;23.35;7.20;;;;;;;2.15;88.22;99990.41;5046129;28;20060;-65
2022/02/03 03:39:15;;;;;;;30.98;8.02;;;;;;;2.02;87.99;99968.81;5064007;28;20120;-66
2022/02/03 03:41:44;;;;;;;27.58;9.00;;;;;;;2.19;88.12;99995.63;5063939;28;20433;-66
2022/02/03 03:44:14;;;;;;;25.52;7.68;;;;;;;2.11;88.16;99979.25;5045972;28;20024;-65
2022/02/03 03:46:45;;;;;;;31.08;8.38;;;;;;;2.20;87.84;99997.38;5063763;28;20562;-66
2022/02/03 03:49:34;;;;;;;29.58;7.25;;;;;;;2.19;87.94;100003.31;5063381;28;20052;-64
2022/02/03 03:52:12;;;;;;;28.27;7.95;;;;;;;2.08;87.78;99982.63;5063921;28;20369;-64
2022/02/03 03:54:49;;;;;;;16.65;6.55;;;;;;;2.17;87.76;99994.72;5045879;28;20023;-64
2022/02/03 04:38:27;;;;;;;27.85;7.60;;;;;;;2.05;87.93;100013.28;5001047;28;20117;-65
2022/02/03 04:44:32;;;;;;;25.45;7.55;;;;;;;2.04;88.02;99998.75;4981071;28;20418;-66
2022/02/03 05:05:02;;;;;;;20.10;8.35;;;;;;;1.63;88.57;99996.22;5005417;28;20061;-68
2022/02/03 05:17:02;;;;;;;23.60;7.78;;;;;;;1.52;88.95;99976.34;5066958;28;20025;-66
2022/02/03 05:51:10;;;;;;;0.40;0.40;;;;;;;1.81;89.64;99968.44;5066374;28;20028;-66
2022/02/03 06:02:22;;;;;;;0.40;0.40;;;;;;;1.71;90.02;99959.69;4984410;28;20073;-66
2022/02/03 06:14:59;;;;;;;0.30;0.30;;;;;;;1.82;89.94;99967.59;4983997;28;20034;-65
2022/02/03 06:17:32;;;;;;;0.38;0.38;;;;;;;1.81;90.03;99965.88;4984286;28;20506;-65
2022/02/03 06:22:48;;;;;;;0.40;0.40;;;;;;;1.78;90.48;99963.25;4984180;28;20033;-66
2022/02/03 06:27:45;;;;;;;0.40;0.40;;;;;;;1.78;90.40;99960.69;4984057;28;20027;-68
2022/02/03 06:30:13;;;;;;;1.55;1.48;;;;;;;1.75;90.34;99959.75;4983895;28;20030;-68
2022/02/03 06:32:42;;;;;;;0.40;0.40;;;;;;;1.69;90.17;99958.78;4981551;28;20036;-67
2022/02/03 06:35:11;;;;;;;0.40;0.40;;;;;;;1.58;90.37;99958.56;5065592;28;20496;-66
2022/02/03 06:37:37;;;;;;;0.50;0.50;;;;;;;1.53;90.64;99960.19;5047179;28;20059;-66
2022/02/03 06:40:09;;;;;;;0.30;0.30;;;;;;;1.54;91.00;99961.03;5065583;28;20021;-67
2022/02/03 06:42:34;;;;;;;;;;;;;;;1.58;91.26;99961.13;5066176;28;20021;-66
2022/02/03 06:48:20;;;;;;;0.50;0.50;;;;;;;1.57;91.15;99955.97;4999573;28;20037;-67
2022/02/03 06:50:51;;;;;;;1.95;1.85;;;;;;;1.55;91.18;99950.00;5064251;28;20108;-68
2022/02/03 06:53:21;;;;;;;0.40;0.40;;;;;;;1.48;90.83;99946.44;5064716;28;20060;-65
2022/02/03 06:56:01;;;;;;;0.40;0.40;;;;;;;1.39;90.85;99957.31;5065190;28;20047;-66
2022/02/03 07:01:11;;;;;;;0.30;0.30;;;;;;;1.27;91.15;99942.56;5065190;28;20056;-65
2022/02/03 07:03:40;;;;;;;0.40;0.40;;;;;;;1.27;91.03;99941.69;5065082;28;20492;-65
2022/02/03 07:06:06;;;;;;;0.50;0.50;;;;;;;1.25;91.07;99953.59;5064966;28;20040;-65
2022/02/03 07:08:33;;;;;;;0.40;0.40;;;;;;;1.20;91.12;99946.69;5064859;28;20024;-66
2022/02/03 07:11:00;;;;;;;0.80;0.80;;;;;;;1.19;91.39;99941.53;5064814;28;20017;-68
2022/02/03 07:13:26;;;;;;;0.43;0.43;;;;;;;1.14;91.25;99935.44;5046728;28;20427;-66
2022/02/03 07:15:51;;;;;;;0.50;0.50;;;;;;;1.13;91.40;99949.06;5046768;28;20044;-67
2022/02/03 07:18:18;;;;;;;0.50;0.50;;;;;;;1.12;91.40;99943.06;5064696;28;20036;-67
2022/02/03 07:20:43;;;;;;;0.40;0.40;;;;;;;1.12;91.45;99945.63;5064597;28;20043;-67
2022/02/03 07:23:09;;;;;;;0.30;0.30;;;;;;;1.04;91.51;99921.59;5063883;28;20223;-67
2022/02/03 07:25:38;;;;;;;0.40;0.40;;;;;;;1.15;91.56;99939.75;5064852;28;20021;-68
2022/02/03 07:28:07;;;;;;;0.30;0.30;;;;;;;1.12;91.58;99930.28;5064364;28;20040;-68
2022/02/03 07:30:33;;;;;;;0.40;0.40;;;;;;;1.12;91.70;99937.97;5046558;28;20033;-68
2022/02/03 07:33:00;;;;;;;0.40;0.40;;;;;;;1.12;91.75;99932.84;5064542;28;20028;-69
2022/02/03 07:35:28;;;;;;;0.40;0.40;;;;;;;1.09;91.84;99925.09;5064430;28;20071;-68
2022/02/03 07:37:53;;;;;;;0.40;0.40;;;;;;;1.10;91.87;99930.25;5064330;28;20044;-70
2022/02/03 07:40:19;;;;;;;0.35;0.35;;;;;;;1.13;92.02;99926.91;5064400;28;20017;-67
2022/02/03 07:42:48;;;;;;;0.43;0.43;;;;;;;1.08;92.19;99914.03;5046232;28;20036;-67
2022/02/03 07:45:14;;;;;;;0.40;0.40;;;;;;;1.16;92.11;99929.53;5064088;28;20036;-68
2022/02/03 07:47:51;;;;;;;0.43;0.43;;;;;;;1.15;92.24;99926.97;5064242;28;20036;-70
2022/02/03 07:50:17;;;;;;;0.38;0.38;;;;;;;1.09;92.55;99925.09;5064439;28;20057;-69
2022/02/03 07:52:44;;;;;;;0.40;0.40;;;;;;;1.16;92.71;99923.56;5063998;28;20362;-68
2022/02/03 07:55:11;;;;;;;0.40;0.40;;;;;;;1.18;92.73;99917.63;5046082;28;20029;-68
2022/02/03 07:57:41;;;;;;;0.40;0.40;;;;;;;1.24;92.37;99922.03;5064157;28;20043;-69
2022/02/03 08:00:08;;;;;;;0.50;0.50;;;;;;;1.23;92.10;99920.31;5063758;28;20025;-69
2022/02/03 08:02:35;;;;;;;1.15;1.15;;;;;;;1.15;92.04;99920.13;5046096;28;20405;-69
2022/02/03 08:05:03;;;;;;;0.40;0.40;;;;;;;1.15;91.96;99917.56;5063822;28;20028;-68
2022/02/03 08:07:29;;;;;;;0.60;0.60;;;;;;;1.11;92.18;99918.34;5046024;28;20051;-68
2022/02/03 08:10:01;;;;;;;0.40;0.40;;;;;;;0.97;92.50;99895.03;5063911;28;20025;-69
2022/02/03 08:12:31;;;;;;;0.40;0.40;;;;;;;1.08;92.15;99911.47;5063868;28;20040;-68
2022/02/03 08:14:58;;;;;;;0.40;0.40;;;;;;;1.02;92.27;99901.13;5063723;28;20040;-69
2022/02/03 08:17:36;;;;;;;0.40;0.40;;;;;;;1.04;92.49;99904.56;5063595;28;20028;-69
2022/02/03 08:20:08;;;;;;;0.88;0.88;;;;;;;0.98;92.48;99895.06;5063681;28;20053;-69
2022/02/03 08:32:31;;;;;;;0.47;0.47;;;;;;;1.23;92.82;99916.06;5063773;28;20025;-68
2022/02/03 08:35:21;;;;;;;0.40;0.40;;;;;;;1.24;92.92;99906.69;5063335;28;20024;-68
2022/02/03 08:37:46;;;;;;;0.32;0.32;;;;;;;1.28;92.86;99911.03;5062582;28;20048;-68
2022/02/03 08:43:06;;;;;;;0.40;0.40;;;;;;;1.20;93.07;99885.31;5025209;28;20093;-69
2022/02/03 08:45:31;;;;;;;0.40;0.40;;;;;;;1.28;93.42;99903.38;5063589;28;20021;-70
2022/02/03 08:47:56;;;;;;;0.45;0.45;;;;;;;1.29;93.59;99904.25;5063353;28;20025;-69
2022/02/03 08:50:23;;;;;;;0.40;0.40;;;;;;;1.34;93.18;99897.53;5063483;28;20089;-69
2022/02/03 08:52:57;;;;;;;0.40;0.40;;;;;;;1.37;93.02;99895.03;5045308;28;20036;-69
2022/02/03 08:55:34;;;;;;;5.15;4.70;;;;;;;1.28;92.93;99872.69;5063148;28;20033;-69
2022/02/03 09:41:42;;;;;;;0.40;0.40;;;;;;;1.75;93.23;99832.66;5062666;28;20025;-69
2022/02/03 09:54:57;;;;;;;0.30;0.30;;;;;;;1.77;93.93;99819.88;5066407;28;20020;-69
2022/02/03 09:58:13;;;;;;;0.30;0.30;;;;;;;1.78;93.87;99817.34;5065449;28;20087;-69
2022/02/03 10:00:33;;;;;;;0.40;0.40;;;;;;;1.71;94.34;99813.81;5052256;28;20041;-70
2022/02/03 10:03:01;;;;;;;0.40;0.40;;;;;;;1.68;94.27;99808.63;5066342;28;20033;-70
2022/02/03 10:05:34;;;;;;;0.30;0.30;;;;;;;1.80;93.88;99815.69;5066284;28;20489;-70
2022/02/03 10:07:59;;;;;;;0.40;0.40;;;;;;;1.76;94.07;99802.81;5066094;28;20033;-70
2022/02/03 10:10:28;;;;;;;0.35;0.35;;;;;;;1.80;93.87;99804.59;5066098;28;20056;-70
2022/02/03 10:12:53;;;;;;;0.40;0.40;;;;;;;1.81;93.65;99801.19;5066221;28;20032;-71
2022/02/03 10:15:21;;;;;;;0.50;0.50;;;;;;;1.89;93.32;99797.06;5065964;28;20071;-72
2022/02/03 10:17:48;;;;;;;0.40;0.40;;;;;;;1.88;93.11;99797.03;5065789;28;20028;-70
2022/02/03 10:20:18;;;;;;;0.40;0.40;;;;;;;1.75;93.54;99786.59;5065930;28;20025;-71
2022/02/03 10:22:55;;;;;;;0.55;0.55;;;;;;;1.85;93.39;99793.56;5065853;28;20098;-71
2022/02/03 10:25:33;;;;;;;0.40;0.40;;;;;;;1.80;93.69;99790.09;5065858;28;20021;-72
2022/02/03 10:28:10;;;;;;;0.40;0.40;;;;;;;1.93;93.25;99780.91;5065853;28;20025;-72
2022/02/03 10:33:12;;;;;;;0.30;0.30;;;;;;;1.94;93.46;99782.66;5065874;28;20029;-70
2022/02/03 10:35:53;;;;;;;0.40;0.40;;;;;;;1.91;93.86;99781.72;5065575;28;20025;-73
2022/02/03 10:54:16;;;;;;;0.40;0.40;;;;;;;2.21;93.05;99750.63;5065320;28;20025;-72
2022/02/03 11:02:26;;;;;;;0.30;0.30;;;;;;;2.19;92.68;99734.38;5065291;28;20380;-72
2022/02/03 11:07:46;;;;;;;0.32;0.32;;;;;;;2.19;93.02;99736.94;5064920;28;20032;-72
2022/02/03 11:12:52;;;;;;;0.40;0.40;;;;;;;2.14;93.17;99718.06;5065083;28;20028;-73
2022/02/03 11:15:24;;;;;;;0.30;0.30;;;;;;;2.10;93.45;99716.31;5064667;28;20056;-72
2022/02/03 11:17:51;;;;;;;;;;;;;;;2.21;93.40;99719.03;5065222;28;20192;-71
2022/02/03 11:20:19;;;;;;;0.40;0.40;;;;;;;2.10;93.80;99721.44;5064613;28;19913;-72
2022/02/03 11:26:01;;;;;;;0.40;0.40;;;;;;;2.08;93.42;99689.81;5059825;28;20104;-71
2022/02/03 11:28:52;;;;;;;0.30;0.30;;;;;;;2.11;93.44;99687.28;5064139;28;20032;-72
2022/02/03 11:39:53;;;;;;;0.40;0.40;;;;;;;2.35;92.84;99683.34;5064439;28;20068;-71
2022/02/03 11:48:12;;;;;;;0.40;0.40;;;;;;;2.23;93.25;99684.06;5064134;28;20025;-72
2022/02/03 12:01:28;;;;;;;0.40;0.40;;;;;;;2.34;93.68;99664.59;5064104;28;20600;-72
2022/02/03 12:12:53;;;;;;;0.38;0.38;;;;;;;2.44;93.01;99652.75;5064003;28;20021;-72
2022/02/03 12:26:14;;;;;;;0.35;0.35;;;;;;;2.51;92.74;99601.59;5063686;28;20025;-72
2022/02/03 12:39:18;;;;;;;0.40;0.40;;;;;;;2.52;92.99;99586.22;5063271;28;20079;-72
2022/02/03 12:42:01;;;;;;;0.30;0.30;;;;;;;2.75;92.29;99577.06;5045396;28;20032;-71
2022/02/03 12:44:28;;;;;;;0.40;0.40;;;;;;;2.76;91.60;99578.78;5063212;28;20345;-71
2022/02/03 12:47:02;;;;;;;0.40;0.40;;;;;;;2.47;92.57;99546.88;5063435;28;20056;-71
2022/02/03 12:49:30;;;;;;;0.30;0.30;;;;;;;2.74;91.69;99565.94;5063343;28;20021;-72
2022/02/03 12:51:56;;;;;;;0.30;0.30;;;;;;;2.48;93.05;99549.47;5063456;28;20021;-72
2022/02/03 12:54:22;;;;;;;0.38;0.38;;;;;;;2.64;92.64;99548.75;5063494;28;20031;-72
2022/02/03 12:56:47;;;;;;;0.40;0.40;;;;;;;2.69;92.18;99531.72;5063426;28;20021;-73
2022/02/03 12:59:16;;;;;;;0.40;0.40;;;;;;;2.65;92.02;99535.09;5062964;28;20032;-73
2022/02/03 13:01:43;;;;;;;0.40;0.40;;;;;;;2.51;92.74;99522.16;5062991;28;20101;-72
2022/02/03 13:04:13;;;;;;;0.40;0.40;;;;;;;2.73;91.64;99518.09;5063207;28;20047;-71
2022/02/03 13:06:43;;;;;;;0.40;0.40;;;;;;;2.68;92.22;99527.44;5063257;28;20017;-71
2022/02/03 13:09:10;;;;;;;0.30;0.30;;;;;;;2.76;91.41;99522.38;5063357;28;20021;-72
2022/02/03 13:11:52;;;;;;;0.40;0.40;;;;;;;2.63;92.20;99519.72;5062715;28;20044;-71
2022/02/03 13:14:38;;;;;;;0.43;0.43;;;;;;;2.64;92.52;99520.56;5062266;28;20048;-72
2022/02/03 13:17:15;;;;;;;0.35;0.35;;;;;;;2.75;91.92;99521.53;5044735;28;20120;-71
2022/02/03 13:27:20;;;;;;;0.50;0.50;;;;;;;2.60;92.87;99496.63;5066739;28;20025;-73
2022/02/03 13:30:18;;;;;;;0.50;0.50;;;;;;;2.65;92.69;99505.19;5066474;28;20029;-73
2022/02/03 13:32:45;;;;;;;0.50;0.50;;;;;;;2.74;92.64;99494.19;5062490;28;20029;-71
2022/02/03 13:35:28;;;;;;;0.40;0.40;;;;;;;2.48;93.75;99487.97;5048768;28;20032;-71
2022/02/03 13:38:18;;;;;;;0.35;0.35;;;;;;;2.68;93.12;99489.00;5066482;28;20051;-72
2022/02/03 13:40:44;;;;;;;0.40;0.40;;;;;;;2.66;93.08;99486.41;5065112;28;20021;-73
2022/02/03 13:43:12;;;;;;;0.30;0.30;;;;;;;2.75;92.85;99482.22;5066410;28;20060;-73
2022/02/03 13:45:42;;;;;;;0.30;0.30;;;;;;;2.83;92.34;99493.38;5066428;28;20040;-72
2022/02/03 13:48:15;;;;;;;0.30;0.30;;;;;;;2.59;93.11;99484.63;5066420;28;20028;-73
2022/02/03 13:50:40;;;;;;;0.40;0.40;;;;;;;2.52;93.51;99465.81;5066454;28;20031;-73
2022/02/03 13:53:21;;;;;;;0.40;0.40;;;;;;;2.80;92.61;99472.84;5066584;28;20060;-72
2022/02/03 14:18:14;;;;;;;0.30;0.30;;;;;;;2.55;94.21;99450.44;5065964;28;20068;-72
2022/02/03 14:28:19;;;;;;;0.30;0.30;;;;;;;2.66;94.14;99439.41;5065704;28;20036;-71
2022/02/03 14:30:47;;;;;;;0.40;0.40;;;;;;;2.71;94.14;99441.19;5065617;28;20021;-72
2022/02/03 14:33:22;;;;;;;0.40;0.40;;;;;;;2.67;94.04;99436.88;5065236;28;20048;-71
2022/02/03 14:35:47;;;;;;;0.40;0.40;;;;;;;2.90;93.05;99449.03;5065972;28;20021;-72
2022/02/03 14:38:21;;;;;;;0.40;0.40;;;;;;;2.73;94.00;99439.47;5065325;28;20493;-73
2022/02/03 14:41:48;;;;;;;0.40;0.40;;;;;;;2.74;94.00;99430.09;5065489;28;20025;-71
2022/02/03 14:43:41;;;;;;;0.40;0.40;;;;;;;2.88;92.99;99414.81;5043212;28;20037;-71
2022/02/03 14:46:12;;;;;;;0.30;0.30;;;;;;;2.79;93.28;99414.75;5065445;28;20017;-72
2022/02/03 14:48:39;;;;;;;0.40;0.40;;;;;;;2.77;93.87;99419.00;5065245;28;20088;-73
2022/02/03 14:51:06;;;;;;;0.40;0.40;;;;;;;2.68;93.87;99404.44;5065366;28;20021;-72
2022/02/03 14:53:49;;;;;;;0.35;0.35;;;;;;;2.91;93.43;99413.97;5047296;28;20017;-72
2022/02/03 14:59:00;;;;;;;0.50;0.50;;;;;;;2.78;93.80;99418.16;5065024;28;20060;-73
2022/02/03 15:01:27;;;;;;;0.40;0.40;;;;;;;2.65;94.55;99422.34;5065122;28;20025;-73
2022/02/03 15:03:55;;;;;;;0.40;0.40;;;;;;;2.75;94.13;99410.47;5047219;28;20021;-73
2022/02/03 15:06:24;;;;;;;0.30;0.30;;;;;;;2.74;94.05;99422.41;5065175;28;20029;-71
2022/02/03 15:09:14;;;;;;;0.40;0.40;;;;;;;2.77;93.75;99398.50;5046745;28;20094;-73
2022/02/03 15:14:14;;;;;;;0.40;0.40;;;;;;;2.79;93.81;99395.13;5064605;28;20061;-73
2022/02/03 15:16:40;;;;;;;0.30;0.30;;;;;;;2.82;93.20;99399.41;5064755;28;20035;-72
2022/02/03 15:19:09;;;;;;;0.52;0.52;;;;;;;2.73;93.41;99379.69;5046464;28;20044;-72
2022/02/03 15:21:35;;;;;;;0.40;0.40;;;;;;;2.78;93.37;99388.25;5064444;28;20024;-71
2022/02/03 15:24:03;;;;;;;0.40;0.40;;;;;;;2.75;93.52;99382.25;5064661;28;20028;-73
2022/02/03 15:26:28;;;;;;;0.70;0.70;;;;;;;2.80;93.52;99378.00;5046789;28;20043;-71
2022/02/03 15:28:54;;;;;;;0.40;0.40;;;;;;;2.79;93.30;99381.44;5064120;28;20441;-72
2022/02/03 15:31:29;;;;;;;0.40;0.40;;;;;;;2.79;93.05;99374.59;5046470;28;20024;-73
2022/02/03 15:33:58;;;;;;;0.40;0.40;;;;;;;2.70;93.83;99369.41;5064377;28;20040;-73
2022/02/03 15:36:24;;;;;;;0.35;0.35;;;;;;;2.67;93.75;99375.34;5064523;28;20081;-72
2022/02/03 15:38:50;;;;;;;0.35;0.35;;;;;;;2.76;93.71;99368.59;5063858;28;20056;-74
2022/02/03 15:41:28;;;;;;;0.40;0.40;;;;;;;2.58;94.33;99368.47;5064045;28;20497;-72
2022/02/03 15:43:55;;;;;;;0.40;0.40;;;;;;;2.78;93.22;99361.78;5063296;28;20029;-72
2022/02/03 15:46:23;;;;;;;0.40;0.40;;;;;;;2.75;93.44;99364.31;5064133;28;20101;-72
2022/02/03 16:18:39;;;;;;;0.40;0.40;;;;;;;2.72;94.15;99340.38;4924607;29;20083;-72
2022/02/03 16:21:21;;;;;;;0.40;0.40;;;;;;;2.68;94.37;99337.78;4924516;29;20564;-72
2022/02/03 16:51:24;;;;;;;0.40;0.40;;;;;;;2.67;95.19;99305.31;5063419;28;20083;-70
2022/02/03 16:53:33;;;;;;;0.50;0.50;;;;;;;2.63;95.75;99308.69;5059178;28;20349;-72
2022/02/03 16:56:01;;;;;;;0.93;0.85;;;;;;;2.66;95.78;99307.03;5065250;28;20316;-70
2022/02/03 16:58:30;;;;;;;0.40;0.40;;;;;;;2.68;95.93;99313.03;5066984;28;20021;-71
2022/02/03 17:00:59;;;;;;;0.30;0.30;;;;;;;2.72;95.80;99312.19;5066433;28;20024;-71
2022/02/03 17:03:25;;;;;;;0.40;0.40;;;;;;;2.79;95.56;99313.09;5066511;28;20552;-70
2022/02/03 17:05:51;;;;;;;0.30;0.30;;;;;;;2.70;96.13;99313.03;5049770;28;20021;-68
2022/02/03 17:08:16;;;;;;;0.40;0.40;;;;;;;2.78;95.80;99310.50;5048266;28;20031;-72
2022/02/03 17:10:42;;;;;;;0.30;0.30;;;;;;;2.65;96.44;99294.19;5066250;28;20035;-71
2022/02/03 17:13:07;;;;;;;0.40;0.40;;;;;;;2.76;96.04;99313.06;5048274;28;20025;-74
2022/02/03 17:15:34;;;;;;;0.40;0.40;;;;;;;2.80;95.91;99311.34;5066054;28;20021;-71
2022/02/03 17:17:59;;;;;;;0.40;0.40;;;;;;;2.68;95.82;99295.09;5047971;28;20025;-73
2022/02/03 17:20:29;;;;;;;0.30;0.30;;;;;;;2.78;95.88;99293.41;5066285;28;20114;-74
2022/02/03 17:22:56;;;;;;;0.40;0.40;;;;;;;2.70;96.05;99298.50;5066274;28;20021;-73
2022/02/03 17:30:25;;;;;;;0.40;0.40;;;;;;;2.69;96.24;99289.09;5065964;28;20033;-73
2022/02/03 18:03:03;;;;;;;0.40;0.40;;;;;;;2.72;96.46;99272.88;5064978;28;20031;-72
2022/02/03 18:11:04;;;;;;;0.40;0.40;;;;;;;2.81;96.63;99269.50;5065294;28;20035;-72
2022/02/03 18:30:16;;;;;;;0.30;0.30;;;;;;;2.83;97.56;99275.50;5065478;28;20520;-72
2022/02/03 19:01:43;;;;;;;0.30;0.30;;;;;;;3.14;97.86;99244.84;5064918;28;20017;-72
2022/02/03 20:08:48;;;;;;;0.30;0.30;;;;;;;4.72;99.70;99260.28;5071080;28;20037;-68
2022/02/03 20:11:16;;;;;;;0.22;0.22;;;;;;;4.76;99.63;99256.00;5080363;28;20572;-68
2022/02/03 20:13:41;;;;;;;0.30;0.30;;;;;;;4.79;99.43;99248.28;5079893;28;20035;-68
2022/02/03 20:16:07;;;;;;;0.40;0.40;;;;;;;4.82;99.41;99248.25;5079717;28;20017;-69
2022/02/03 20:18:33;;;;;;;0.30;0.30;;;;;;;4.81;99.29;99243.97;5080080;28;20048;-67
2022/02/03 20:20:58;;;;;;;0.30;0.30;;;;;;;4.87;99.18;99243.97;5080042;28;20021;-68
2022/02/03 20:23:24;;;;;;;0.30;0.30;;;;;;;4.87;99.24;99238.81;5079700;28;20091;-69
2022/02/03 20:25:58;;;;;;;0.38;0.38;;;;;;;4.94;99.30;99245.63;5079763;28;20024;-67
2022/02/03 20:28:27;;;;;;;0.30;0.30;;;;;;;4.99;99.20;99243.03;5079720;28;20074;-70
2022/02/03 20:30:54;;;;;;;0.30;0.30;;;;;;;5.01;99.13;99240.47;5079509;28;20103;-70
2022/02/03 20:33:20;;;;;;;0.30;0.30;;;;;;;4.99;99.24;99229.31;5079636;28;20104;-67
2022/02/03 20:35:45;;;;;;;0.30;0.30;;;;;;;5.07;99.31;99235.28;5079683;28;20025;-68
2022/02/03 20:38:14;;;;;;;0.30;0.30;;;;;;;5.06;99.31;99228.44;5079286;28;20056;-68
2022/02/03 20:40:40;;;;;;;0.30;0.30;;;;;;;5.12;99.12;99230.97;5079115;28;20166;-68
2022/02/03 20:43:05;;;;;;;0.30;0.30;;;;;;;5.15;99.15;99228.38;5079195;28;20153;-68
2022/02/03 20:45:31;;;;;;;0.30;0.30;;;;;;;5.10;99.29;99221.56;5079092;28;20021;-68
2022/02/03 20:47:56;;;;;;;0.30;0.30;;;;;;;5.18;99.23;99233.53;5079472;28;20025;-69
2022/02/03 20:50:21;;;;;;;0.30;0.30;;;;;;;5.21;99.15;99230.06;5079015;28;20108;-68
2022/02/03 20:52:48;;;;;;;0.30;0.30;;;;;;;5.22;99.13;99234.38;5066640;28;20013;-68
2022/02/03 20:55:14;;;;;;;0.30;0.30;;;;;;;5.23;99.33;99225.78;5065965;28;20025;-68
2022/02/03 20:57:39;;;;;;;0.30;0.30;;;;;;;5.19;99.24;99221.53;5065655;28;20350;-68
2022/02/03 21:05:11;;;;;;;0.30;0.30;;;;;;;5.26;99.11;99224.88;5065703;28;20029;-68
2022/02/03 21:07:37;;;;;;;0.40;0.40;;;;;;;5.23;99.11;99223.19;5065871;28;20025;-69
2022/02/03 21:10:07;;;;;;;0.30;0.30;;;;;;;5.25;99.05;99218.03;5065527;28;20112;-68
2022/02/03 21:12:33;;;;;;;0.30;0.30;;;;;;;5.23;99.09;99224.91;5065720;28;20295;-68
2022/02/03 21:14:59;;;;;;;0.30;0.30;;;;;;;5.26;98.96;99224.88;5065299;28;20025;-68
2022/02/03 21:17:28;;;;;;;0.30;0.30;;;;;;;5.25;99.03;99218.03;5065418;28;20026;-67
2022/02/03 21:19:54;;;;;;;0.35;0.35;;;;;;;5.24;99.08;99224.91;5065277;28;20439;-68
2022/02/03 21:22:21;;;;;;;0.30;0.30;;;;;;;5.24;98.95;99216.34;5065431;28;20020;-68
2022/02/03 21:24:47;;;;;;;0.32;0.32;;;;;;;5.25;98.92;99218.91;5065304;28;20028;-69
2022/02/03 21:27:17;;;;;;;0.30;0.30;;;;;;;5.25;99.19;99210.31;5065332;28;20025;-69
2022/02/03 21:29:44;;;;;;;0.30;0.30;;;;;;;5.24;98.92;99211.19;5065247;28;20104;-68
2022/02/03 21:32:09;;;;;;;0.30;0.30;;;;;;;5.20;99.00;99213.78;5065301;28;20024;-68
2022/02/03 21:34:35;;;;;;;0.20;0.20;;;;;;;5.21;98.83;99212.06;5064895;28;20553;-68
2022/02/03 21:37:01;;;;;;;0.30;0.30;;;;;;;5.23;99.04;99225.78;5064932;28;20017;-68
2022/02/03 21:39:26;;;;;;;0.38;0.38;;;;;;;5.23;99.01;99222.34;5064663;28;20056;-69
2022/02/03 21:41:51;;;;;;;0.30;0.30;;;;;;;5.24;98.79;99224.06;5064893;28;20021;-68
2022/02/03 21:44:17;;;;;;;0.30;0.30;;;;;;;5.23;98.94;99227.47;5064632;28;20021;-68
2022/02/03 21:46:43;;;;;;;0.30;0.30;;;;;;;5.22;98.97;99221.50;5064713;28;20025;-68
2022/02/03 21:49:09;;;;;;;0.30;0.30;;;;;;;5.18;99.04;99223.22;5064782;28;20029;-68
2022/02/03 21:51:41;;;;;;;0.30;0.30;;;;;;;5.19;98.82;99222.34;5064847;28;20036;-68
2022/02/03 21:54:08;;;;;;;0.40;0.40;;;;;;;5.18;98.86;99224.94;5064645;28;20097;-67
2022/02/03 21:56:33;;;;;;;0.30;0.30;;;;;;;5.17;98.77;99216.38;5064504;28;20031;-68
2022/02/03 21:59:03;;;;;;;0.30;0.30;;;;;;;5.17;98.89;99225.81;5064297;28;20017;-68
2022/02/03 22:01:29;;;;;;;0.30;0.30;;;;;;;5.15;99.06;99207.81;5063212;28;20093;-68
2022/02/03 22:03:55;;;;;;;0.40;0.40;;;;;;;5.16;98.89;99206.94;5063529;28;20021;-67
2022/02/03 22:06:20;;;;;;;0.30;0.30;;;;;;;5.17;99.04;99216.38;5064679;28;20048;-68
2022/02/03 22:08:45;;;;;;;0.30;0.30;;;;;;;5.16;99.00;99212.06;5064408;28;20562;-68
2022/02/03 22:11:11;;;;;;;0.30;0.30;;;;;;;5.16;98.71;99214.66;5064682;28;20021;-68
2022/02/03 22:13:39;;;;;;;0.30;0.30;;;;;;;5.13;98.83;99214.66;5064585;28;20032;-68
2022/02/03 22:16:11;;;;;;;0.30;0.30;;;;;;;5.14;98.85;99220.69;5064299;28;20028;-68
2022/02/03 22:18:37;;;;;;;0.30;0.30;;;;;;;5.14;98.86;99218.09;5064550;28;20389;-68
2022/02/03 22:21:10;;;;;;;0.32;0.32;;;;;;;5.14;98.97;99215.53;5064292;28;20029;-68
2022/02/03 22:43:05;;;;;;;0.30;0.30;;;;;;;4.92;98.87;99206.19;5041326;28;20025;-68
2022/02/03 22:48:28;;;;;;;0.30;0.30;;;;;;;4.91;98.82;99204.50;5017848;28;20063;-68
2022/02/03 22:50:55;;;;;;;0.30;0.30;;;;;;;4.89;98.83;99203.63;5041262;28;20041;-68
2022/02/03 22:53:21;;;;;;;0.30;0.30;;;;;;;4.90;98.88;99207.94;5041244;28;20357;-68
2022/02/03 22:55:46;;;;;;;0.40;0.40;;;;;;;4.93;99.04;99219.91;5041040;28;20155;-69
2022/02/03 22:58:34;;;;;;;0.30;0.30;;;;;;;4.95;99.06;99224.19;5040928;28;20044;-68
2022/02/03 23:01:00;;;;;;;0.30;0.30;;;;;;;4.98;99.06;99230.19;5040683;28;20532;-68
2022/02/03 23:03:33;;;;;;;0.38;0.38;;;;;;;4.99;99.10;99219.03;5056839;28;20063;-68
2022/02/03 23:05:59;;;;;;;0.30;0.30;;;;;;;5.00;99.17;99219.00;5063785;28;20032;-68
2022/02/03 23:14:16;;;;;;;0.30;0.30;;;;;;;5.10;99.38;99219.00;5063623;28;20024;-68
2022/02/03 23:16:47;;;;;;;0.40;0.40;;;;;;;5.17;99.27;99215.50;5063653;28;20029;-68
2022/02/03 23:21:47;;;;;;;0.30;0.30;;;;;;;5.20;99.19;99218.06;5063558;28;20084;-67
2022/02/03 23:24:12;;;;;;;;;;;;;;;5.25;99.30;99225.75;5063819;28;20021;-67
2022/02/03 23:26:38;;;;;;;0.40;0.40;;;;;;;5.21;99.32;99217.19;5061952;28;19908;-67
2022/02/03 23:29:11;;;;;;;0.30;0.30;;;;;;;5.21;99.17;99224.91;5063126;28;20032;-67
2022/02/03 23:34:11;;;;;;;0.30;0.30;;;;;;;5.15;99.25;99218.09;5063217;28;20111;-67